createdAt,value
2018-01-01T00:01:15.900Z,3.15
2018-01-01T00:03:44.174Z,3.09
2018-01-01T00:06:12.753Z,3.17
2018-01-01T00:08:40.771Z,3.12
2018-01-01T00:11:08.604Z,3.10
2018-01-01T00:13:36.522Z,3.05
2018-01-01T00:16:04.327Z,2.99
2018-01-01T00:18:32.099Z,2.93
2018-01-01T00:21:00.085Z,2.91
2018-01-01T00:23:27.763Z,2.87
2018-01-01T00:25:55.267Z,2.86
2018-01-01T00:28:22.745Z,2.82
2018-01-01T00:30:50.229Z,2.84
2018-01-01T00:33:17.752Z,2.90
2018-01-01T00:35:45.216Z,3.03
2018-01-01T00:38:12.679Z,3.01
2018-01-01T00:40:40.157Z,2.91
2018-01-01T00:43:07.651Z,2.84
2018-01-01T00:45:35.167Z,2.86
2018-01-01T00:48:02.731Z,2.90
2018-01-01T00:50:30.235Z,2.79
2018-01-01T00:52:57.711Z,2.74
2018-01-01T00:55:25.196Z,2.66
2018-01-01T00:57:52.756Z,2.62
2018-01-01T01:00:20.282Z,2.63
2018-01-01T01:02:47.758Z,2.73
2018-01-01T01:05:15.271Z,2.77
2018-01-01T01:07:42.773Z,2.83
2018-01-01T01:10:10.339Z,2.85
2018-01-01T01:12:37.848Z,2.86
2018-01-01T01:15:05.328Z,2.82
2018-01-01T01:17:32.800Z,2.85
2018-01-01T01:20:00.285Z,2.88
2018-01-01T01:22:27.795Z,2.95
2018-01-01T01:24:55.267Z,2.94
2018-01-01T01:27:22.747Z,2.91
2018-01-01T01:29:50.216Z,2.91
2018-01-01T01:32:17.949Z,2.99
2018-01-01T01:34:45.444Z,3.04
2018-01-01T01:37:12.889Z,3.11
2018-01-01T01:39:40.428Z,3.19
2018-01-01T01:42:07.923Z,3.25
2018-01-01T01:44:35.427Z,3.35
2018-01-01T01:47:02.929Z,3.38
2018-01-01T01:49:30.394Z,3.52
2018-01-01T01:51:57.883Z,3.58
2018-01-01T01:54:25.484Z,3.60
2018-01-01T01:56:52.948Z,3.62
2018-01-01T01:59:20.432Z,3.61
2018-01-01T02:01:47.912Z,3.60
2018-01-01T02:04:16.458Z,3.63
2018-01-01T02:06:44.034Z,3.61
2018-01-01T02:09:11.560Z,3.59
2018-01-01T02:11:39.028Z,3.65
2018-01-01T02:14:06.515Z,3.60
2018-01-01T02:16:35.019Z,3.59
2018-01-01T02:19:02.502Z,3.57
2018-01-01T02:21:30.029Z,3.56
2018-01-01T02:23:57.497Z,3.54
2018-01-01T02:26:24.982Z,3.56
2018-01-01T02:28:52.470Z,3.58
2018-01-01T02:31:19.929Z,3.51
2018-01-01T02:33:47.390Z,3.50
2018-01-01T02:36:14.869Z,3.43
2018-01-01T02:38:42.375Z,3.43
2018-01-01T02:41:09.855Z,3.40
2018-01-01T02:43:37.323Z,3.30
2018-01-01T02:46:04.797Z,3.39
2018-01-01T02:48:32.261Z,3.33
2018-01-01T02:50:59.747Z,3.36
2018-01-01T02:53:27.263Z,3.38
2018-01-01T02:55:54.735Z,3.36
2018-01-01T02:58:22.255Z,3.50
2018-01-01T03:00:49.739Z,3.48
2018-01-01T03:03:17.220Z,3.42
2018-01-01T03:05:44.686Z,3.42
2018-01-01T03:08:12.131Z,3.44
2018-01-01T03:10:39.636Z,3.46
2018-01-01T03:13:07.123Z,3.50
2018-01-01T03:15:34.586Z,3.54
2018-01-01T03:18:02.044Z,3.54
2018-01-01T03:20:29.541Z,3.51
2018-01-01T03:22:57.019Z,3.47
2018-01-01T03:25:24.507Z,3.51
2018-01-01T03:27:51.987Z,3.58
2018-01-01T03:30:19.427Z,3.56
2018-01-01T03:32:46.884Z,3.46
2018-01-01T03:35:14.384Z,3.48
2018-01-01T03:37:41.840Z,3.53
2018-01-01T03:40:09.303Z,3.67
2018-01-01T03:42:36.854Z,3.78
2018-01-01T03:45:04.315Z,3.78
2018-01-01T03:47:31.775Z,3.76
2018-01-01T03:49:59.273Z,3.77
2018-01-01T03:52:26.740Z,3.80
2018-01-01T03:54:54.200Z,3.81
2018-01-01T03:57:21.676Z,3.81
2018-01-01T03:59:49.128Z,3.79
2018-01-01T04:02:16.698Z,3.74
2018-01-01T04:04:44.184Z,3.74
2018-01-01T04:07:11.763Z,3.74
2018-01-01T04:09:39.264Z,3.80
2018-01-01T04:12:06.722Z,3.85
2018-01-01T04:14:34.395Z,3.78
2018-01-01T04:17:01.884Z,3.79
2018-01-01T04:19:29.329Z,3.91
2018-01-01T04:21:56.815Z,3.80
2018-01-01T04:24:24.376Z,3.89
2018-01-01T04:26:52.458Z,3.95
2018-01-01T04:29:19.942Z,3.96
2018-01-01T04:31:47.408Z,3.86
2018-01-01T04:34:14.924Z,3.94
2018-01-01T04:36:42.829Z,3.91
2018-01-01T04:39:10.310Z,3.95
2018-01-01T04:41:37.806Z,3.90
2018-01-01T04:44:05.311Z,3.93
2018-01-01T04:46:32.920Z,3.95
2018-01-01T04:49:00.419Z,3.92
2018-01-01T04:51:27.888Z,3.87
2018-01-01T04:53:55.480Z,3.83
2018-01-01T04:56:22.952Z,3.74
2018-01-01T04:58:50.533Z,3.78
2018-01-01T05:01:17.983Z,3.89
2018-01-01T05:03:45.439Z,3.86
2018-01-01T05:06:12.902Z,3.87
2018-01-01T05:08:40.359Z,3.89
2018-01-01T05:11:07.827Z,3.93
2018-01-01T05:13:35.297Z,3.96
2018-01-01T05:16:02.784Z,4.04
2018-01-01T05:18:30.255Z,4.22
2018-01-01T05:20:57.717Z,4.16
2018-01-01T05:23:25.180Z,3.96
2018-01-01T05:25:52.694Z,4.02
2018-01-01T05:28:20.156Z,3.95
2018-01-01T05:30:47.627Z,3.88
2018-01-01T05:33:15.137Z,3.71
2018-01-01T05:35:42.611Z,3.73
2018-01-01T05:38:10.095Z,3.70
2018-01-01T05:40:37.555Z,3.58
2018-01-01T05:43:05.090Z,3.58
2018-01-01T05:45:32.616Z,3.56
2018-01-01T05:48:00.078Z,3.69
2018-01-01T05:50:27.544Z,3.73
2018-01-01T05:52:55.066Z,3.70
2018-01-01T05:55:22.529Z,3.64
2018-01-01T05:57:50.003Z,3.57
2018-01-01T06:00:17.471Z,3.48
2018-01-01T06:02:44.934Z,3.49
2018-01-01T06:05:12.387Z,3.56
2018-01-01T06:07:39.852Z,3.55
2018-01-01T06:10:07.352Z,3.60
2018-01-01T06:12:34.848Z,3.51
2018-01-01T06:15:02.308Z,3.55
2018-01-01T06:17:29.756Z,3.54
2018-01-01T06:19:57.223Z,3.50
2018-01-01T06:22:24.667Z,3.52
2018-01-01T06:24:52.119Z,3.48
2018-01-01T06:27:19.655Z,3.46
2018-01-01T06:29:47.385Z,3.52
2018-01-01T06:32:15.155Z,3.48
2018-01-01T06:34:42.642Z,3.46
2018-01-01T06:37:10.118Z,3.58
2018-01-01T06:39:37.602Z,3.54
2018-01-01T06:42:05.059Z,3.48
2018-01-01T06:44:33.813Z,3.44
2018-01-01T06:47:01.264Z,3.48
2018-01-01T06:49:28.718Z,3.48
2018-01-01T06:51:57.363Z,3.42
2018-01-01T06:54:25.059Z,3.41
2018-01-01T06:56:52.530Z,3.40
2018-01-01T06:59:19.988Z,3.45
2018-01-01T07:01:47.454Z,3.53
2018-01-01T07:04:15.103Z,3.57
2018-01-01T07:06:42.606Z,3.55
2018-01-01T07:09:10.123Z,3.53
2018-01-01T07:11:37.585Z,3.48
2018-01-01T07:14:05.054Z,3.46
2018-01-01T07:16:32.794Z,3.48
2018-01-01T07:19:00.256Z,3.53
2018-01-01T07:21:27.710Z,3.58
2018-01-01T07:23:55.249Z,3.61
2018-01-01T07:26:22.748Z,3.63
2018-01-01T07:28:50.215Z,3.66
2018-01-01T07:31:17.688Z,3.73
2018-01-01T07:33:45.139Z,3.70
2018-01-01T07:36:12.603Z,3.70
2018-01-01T07:38:40.054Z,3.78
2018-01-01T07:41:07.655Z,3.79
2018-01-01T07:43:35.151Z,3.85
2018-01-01T07:46:02.630Z,3.88
2018-01-01T07:48:30.136Z,3.91
2018-01-01T07:50:57.613Z,3.92
2018-01-01T07:53:25.055Z,3.96
2018-01-01T07:55:52.518Z,4.02
2018-01-01T07:58:19.976Z,4.14
2018-01-01T08:00:47.436Z,4.22
2018-01-01T08:03:15.416Z,4.31
2018-01-01T08:05:42.944Z,4.42
2018-01-01T08:08:16.803Z,4.54
2018-01-01T08:10:44.303Z,4.58
2018-01-01T08:13:11.826Z,4.63
2018-01-01T08:15:39.332Z,4.65
2018-01-01T08:18:06.831Z,4.63
2018-01-01T08:20:34.311Z,4.64
2018-01-01T08:23:01.769Z,4.69
2018-01-01T08:25:29.280Z,4.71
2018-01-01T08:27:56.783Z,4.73
2018-01-01T08:30:24.318Z,4.76
2018-01-01T08:32:52.782Z,4.76
2018-01-01T08:35:20.493Z,4.79
2018-01-01T08:37:48.062Z,4.76
2018-01-01T08:40:16.126Z,4.81
2018-01-01T08:42:43.703Z,4.86
2018-01-01T08:45:11.342Z,4.84
2018-01-01T08:47:39.019Z,4.99
2018-01-01T08:50:06.490Z,4.98
2018-01-01T08:52:34.099Z,5.03
2018-01-01T08:55:01.600Z,5.04
2018-01-01T08:57:29.072Z,5.02
2018-01-01T08:59:56.521Z,5.11
2018-01-01T09:02:23.991Z,5.22
2018-01-01T09:04:51.479Z,5.34
2018-01-01T09:07:18.957Z,5.44
2018-01-01T09:09:46.479Z,5.41
2018-01-01T09:12:13.931Z,5.40
2018-01-01T09:14:41.406Z,5.44
2018-01-01T09:17:08.871Z,5.43
2018-01-01T09:19:36.352Z,5.46
2018-01-01T09:22:03.827Z,5.54
2018-01-01T09:24:31.771Z,5.49
2018-01-01T09:26:59.242Z,5.48
2018-01-01T09:29:26.916Z,5.63
2018-01-01T09:31:54.389Z,5.79
2018-01-01T09:34:22.370Z,5.92
2018-01-01T09:36:50.915Z,7.20
2018-01-01T09:39:19.410Z,8.19
2018-01-01T09:41:46.904Z,8.80
2018-01-01T09:44:14.354Z,9.04
2018-01-01T09:46:41.807Z,9.22
2018-01-01T09:49:09.970Z,9.26
2018-01-01T09:51:37.530Z,9.37
2018-01-01T09:54:04.994Z,9.44
2018-01-01T09:56:32.505Z,9.44
2018-01-01T09:59:00.220Z,9.48
2018-01-01T10:01:27.718Z,9.53
2018-01-01T10:03:55.217Z,9.57
2018-01-01T10:06:22.690Z,9.60
2018-01-01T10:08:50.142Z,9.61
2018-01-01T10:11:17.602Z,9.62
2018-01-01T10:13:45.121Z,9.71
2018-01-01T10:16:12.643Z,9.68
2018-01-01T10:18:40.127Z,9.69
2018-01-01T10:21:07.633Z,9.73
2018-01-01T10:23:35.104Z,9.86
2018-01-01T10:26:02.559Z,9.83
2018-01-01T10:28:30.046Z,9.81
2018-01-01T10:30:57.506Z,9.84
2018-01-01T10:33:24.994Z,9.82
2018-01-01T10:35:52.467Z,9.89
2018-01-01T10:38:20.644Z,9.88
2018-01-01T10:40:48.152Z,9.91
2018-01-01T10:43:15.631Z,9.95
2018-01-01T10:45:43.089Z,9.93
2018-01-01T10:48:10.614Z,10.00
2018-01-01T10:50:38.593Z,10.02
2018-01-01T10:53:06.032Z,10.00
2018-01-01T10:55:33.499Z,9.96
2018-01-01T10:58:00.965Z,9.98
2018-01-01T11:00:28.728Z,10.00
2018-01-01T11:02:56.192Z,9.98
2018-01-01T11:05:23.665Z,10.06
2018-01-01T11:07:51.163Z,10.04
2018-01-01T11:10:18.719Z,10.05
2018-01-01T11:12:46.210Z,10.12
2018-01-01T11:15:13.752Z,10.05
2018-01-01T11:17:41.255Z,10.02
2018-01-01T11:20:08.699Z,9.98
2018-01-01T11:22:36.162Z,9.98
2018-01-01T11:25:03.972Z,10.00
2018-01-01T11:27:31.528Z,9.98
2018-01-01T11:29:59.020Z,10.02
2018-01-01T11:32:26.471Z,9.97
2018-01-01T11:34:53.920Z,10.02
2018-01-01T11:37:21.364Z,9.96
2018-01-01T11:39:48.813Z,10.03
2018-01-01T11:42:16.266Z,10.05
2018-01-01T11:44:43.790Z,9.98
2018-01-01T11:47:11.245Z,9.91
2018-01-01T11:49:38.732Z,9.94
2018-01-01T11:52:06.180Z,9.94
2018-01-01T11:54:33.695Z,9.95
2018-01-01T11:57:01.151Z,9.92
2018-01-01T11:59:28.616Z,9.95
2018-01-01T12:01:56.609Z,9.93
2018-01-01T12:04:24.090Z,9.89
2018-01-01T12:06:51.558Z,9.91
2018-01-01T12:09:19.157Z,9.90
2018-01-01T12:11:46.663Z,9.86
2018-01-01T12:14:14.189Z,9.79
2018-01-01T12:16:42.489Z,9.81
2018-01-01T12:19:09.940Z,9.80
2018-01-01T12:21:38.331Z,9.90
2018-01-01T12:24:05.809Z,9.83
2018-01-01T12:26:33.357Z,9.83
2018-01-01T12:29:00.889Z,9.79
2018-01-01T12:31:28.384Z,9.85
2018-01-01T12:33:55.835Z,9.81
2018-01-01T12:36:23.333Z,9.73
2018-01-01T12:38:50.882Z,9.74
2018-01-01T12:41:18.984Z,9.70
2018-01-01T12:43:46.649Z,9.72
2018-01-01T12:46:15.097Z,9.69
2018-01-01T12:48:42.703Z,9.66
2018-01-01T12:51:10.354Z,9.68
2018-01-01T12:53:37.934Z,9.78
2018-01-01T12:56:05.589Z,9.67
2018-01-01T12:58:36.683Z,9.66
2018-01-01T13:01:04.184Z,9.75
2018-01-01T13:03:31.746Z,9.75
2018-01-01T13:05:59.273Z,9.78
2018-01-01T13:08:26.823Z,9.74
2018-01-01T13:10:54.556Z,9.79
2018-01-01T13:13:22.979Z,9.77
2018-01-01T13:15:50.441Z,9.71
2018-01-01T13:18:17.946Z,9.75
2018-01-01T13:20:45.455Z,9.71
2018-01-01T13:23:12.951Z,9.69
2018-01-01T13:25:40.664Z,9.75
2018-01-01T13:28:08.150Z,9.74
2018-01-01T13:30:35.608Z,9.69
2018-01-01T13:33:03.087Z,9.62
2018-01-01T13:35:31.896Z,9.63
2018-01-01T13:37:59.381Z,9.65
2018-01-01T13:40:26.909Z,9.63
2018-01-01T13:42:54.654Z,9.65
2018-01-01T13:45:22.178Z,9.65
2018-01-01T13:47:49.678Z,9.73
2018-01-01T13:50:17.997Z,9.70
2018-01-01T13:52:45.632Z,9.71
2018-01-01T13:55:13.154Z,9.69
2018-01-01T13:57:40.667Z,9.66
2018-01-01T14:00:10.952Z,9.66
2018-01-01T14:02:43.595Z,9.69
2018-01-01T14:05:11.132Z,9.68
2018-01-01T14:07:38.618Z,9.73
2018-01-01T14:10:06.173Z,9.75
2018-01-01T14:12:44.543Z,9.72
2018-01-01T14:15:12.324Z,9.68
2018-01-01T14:17:39.841Z,9.79
2018-01-01T14:20:07.303Z,9.73
2018-01-01T14:25:14.864Z,9.64
2018-01-01T14:27:42.382Z,9.64
2018-01-01T14:30:09.856Z,9.64
2018-01-01T14:32:37.708Z,9.61
2018-01-01T14:48:00.358Z,9.51
2018-01-01T14:50:27.854Z,9.51
2018-01-01T14:52:55.299Z,9.58
2018-01-01T14:55:22.769Z,9.64
2018-01-01T14:57:50.229Z,9.61
2018-01-01T15:00:17.700Z,9.60
2018-01-01T15:02:45.195Z,9.68
2018-01-01T15:05:13.833Z,9.53
2018-01-01T15:07:41.386Z,9.54
2018-01-01T15:10:10.163Z,9.54
2018-01-01T15:12:38.000Z,9.54
2018-01-01T15:15:05.578Z,9.55
2018-01-01T15:17:33.015Z,9.53
2018-01-01T15:20:00.461Z,9.59
2018-01-01T15:22:27.968Z,9.63
2018-01-01T15:24:55.461Z,9.62
2018-01-01T15:27:22.936Z,9.67
2018-01-01T15:29:50.416Z,9.65
2018-01-01T15:32:17.896Z,9.57
2018-01-01T15:34:45.376Z,9.45
2018-01-01T15:37:12.834Z,9.43
2018-01-01T15:39:40.444Z,9.52
2018-01-01T15:42:09.446Z,9.43
2018-01-01T15:44:36.935Z,9.36
2018-01-01T15:47:04.437Z,9.43
2018-01-01T15:49:31.884Z,9.38
2018-01-01T15:51:59.335Z,9.51
2018-01-01T15:54:26.833Z,9.42
2018-01-01T15:56:54.314Z,9.46
2018-01-01T15:59:21.775Z,9.29
2018-01-01T16:01:49.330Z,9.25
2018-01-01T16:04:16.825Z,9.20
2018-01-01T16:06:44.360Z,9.33
2018-01-01T16:09:11.835Z,9.33
2018-01-01T16:11:39.368Z,9.32
2018-01-01T16:14:06.815Z,9.31
2018-01-01T16:16:34.723Z,9.19
2018-01-01T16:19:02.378Z,9.22
2018-01-01T16:21:29.977Z,9.16
2018-01-01T16:23:57.569Z,9.07
2018-01-01T16:26:25.113Z,9.06
2018-01-01T16:28:52.636Z,9.09
2018-01-01T16:31:20.416Z,9.13
2018-01-01T16:33:48.280Z,9.16
2018-01-01T16:36:15.840Z,9.13
2018-01-01T16:38:43.325Z,9.19
2018-01-01T16:41:10.880Z,9.14
2018-01-01T16:43:38.380Z,9.18
2018-01-01T16:46:05.898Z,9.20
2018-01-01T16:48:33.552Z,9.18
2018-01-01T16:51:01.244Z,9.07
2018-01-01T16:53:28.735Z,8.96
2018-01-01T16:55:56.256Z,9.04
2018-01-01T16:58:23.751Z,9.07
2018-01-01T17:00:51.228Z,8.96
2018-01-01T17:03:18.750Z,9.05
2018-01-01T17:05:46.412Z,9.10
2018-01-01T17:08:13.949Z,9.09
2018-01-01T17:10:41.460Z,9.05
2018-01-01T17:13:09.034Z,8.93
2018-01-01T17:15:36.559Z,9.02
2018-01-01T17:18:04.086Z,9.00
2018-01-01T17:20:31.646Z,8.96
2018-01-01T17:22:59.145Z,8.82
2018-01-01T17:25:26.721Z,8.80
2018-01-01T17:27:54.357Z,8.73
2018-01-01T17:30:21.956Z,8.67
2018-01-01T17:32:49.621Z,8.53
2018-01-01T17:35:17.322Z,8.44
2018-01-01T17:37:45.121Z,8.40
2018-01-01T17:40:12.836Z,8.41
2018-01-01T17:42:40.575Z,8.46
2018-01-01T17:45:08.330Z,8.31
2018-01-01T17:47:36.095Z,8.26
2018-01-01T17:50:03.981Z,8.32
2018-01-01T17:52:31.799Z,8.23
2018-01-01T17:54:59.638Z,8.21
2018-01-01T17:57:27.480Z,8.32
2018-01-01T17:59:55.396Z,8.35
2018-01-01T18:02:23.297Z,8.24
2018-01-01T18:04:51.267Z,8.12
2018-01-01T18:07:19.122Z,8.14
2018-01-01T18:09:48.040Z,8.19
2018-01-01T18:12:15.952Z,8.14
2018-01-01T18:14:43.803Z,8.12
2018-01-01T18:17:11.721Z,8.08
2018-01-01T18:19:39.555Z,8.04
2018-01-01T18:22:07.397Z,8.05
2018-01-01T18:24:35.309Z,8.09
2018-01-01T18:27:03.203Z,8.02
2018-01-01T18:29:31.080Z,8.00
2018-01-01T18:31:58.938Z,7.93
2018-01-01T18:34:26.824Z,7.98
2018-01-01T18:36:54.721Z,7.96
2018-01-01T18:39:22.560Z,7.89
2018-01-01T18:41:50.504Z,7.84
2018-01-01T18:44:18.435Z,7.81
2018-01-01T18:46:46.358Z,7.84
2018-01-01T18:49:14.299Z,7.81
2018-01-01T18:51:42.294Z,7.74
2018-01-01T18:54:10.222Z,7.64
2018-01-01T18:56:38.176Z,7.48
2018-01-01T18:59:06.224Z,7.38
2018-01-01T19:01:34.220Z,7.27
2018-01-01T19:04:02.161Z,7.13
2018-01-01T19:06:30.153Z,7.01
2018-01-01T19:08:58.158Z,6.91
2018-01-01T19:11:27.113Z,6.90
2018-01-01T19:13:55.053Z,6.85
2018-01-01T19:16:23.093Z,6.79
2018-01-01T19:18:51.201Z,6.69
2018-01-01T19:21:19.121Z,6.62
2018-01-01T19:23:47.047Z,6.62
2018-01-01T19:26:14.957Z,6.66
2018-01-01T19:28:42.889Z,6.55
2018-01-01T19:31:10.818Z,6.52
2018-01-01T19:33:38.675Z,6.56
2018-01-01T19:36:06.697Z,6.55
2018-01-01T19:38:34.841Z,6.59
2018-01-01T19:41:02.742Z,6.57
2018-01-01T19:43:30.649Z,6.51
2018-01-01T19:45:58.521Z,6.48
2018-01-01T19:48:26.495Z,6.50
2018-01-01T19:50:54.387Z,6.45
2018-01-01T19:53:22.281Z,6.38
2018-01-01T19:55:50.397Z,6.26
2018-01-01T19:58:18.283Z,6.16
2018-01-01T20:00:46.181Z,6.09
2018-01-01T20:03:14.120Z,6.03
2018-01-01T20:05:42.106Z,5.98
2018-01-01T20:08:09.976Z,5.94
2018-01-01T20:10:37.952Z,6.05
2018-01-01T20:13:05.806Z,6.05
2018-01-01T20:15:33.646Z,6.12
2018-01-01T20:18:01.472Z,6.11
2018-01-01T20:20:29.335Z,6.15
2018-01-01T20:22:57.179Z,6.19
2018-01-01T20:25:24.998Z,6.15
2018-01-01T20:27:53.393Z,6.14
2018-01-01T20:30:21.285Z,6.07
2018-01-01T20:32:49.104Z,5.98
2018-01-01T20:35:16.927Z,5.91
2018-01-01T20:37:45.174Z,5.87
2018-01-01T20:40:13.027Z,5.84
2018-01-01T20:42:40.808Z,5.85
2018-01-01T20:45:08.578Z,5.79
2018-01-01T20:47:36.425Z,5.70
2018-01-01T20:50:04.212Z,5.64
2018-01-01T20:52:33.183Z,5.60
2018-01-01T20:55:00.998Z,5.56
2018-01-01T20:57:28.811Z,5.54
2018-01-01T20:59:56.663Z,5.53
2018-01-01T21:02:24.496Z,5.51
2018-01-01T21:04:52.399Z,5.48
2018-01-01T21:07:20.219Z,5.49
2018-01-01T21:09:48.153Z,5.49
2018-01-01T21:12:15.989Z,5.46
2018-01-01T21:14:43.813Z,5.42
2018-01-01T21:17:11.600Z,5.40
2018-01-01T21:19:39.485Z,5.28
2018-01-01T21:22:07.309Z,5.20
2018-01-01T21:24:35.134Z,5.14
2018-01-01T21:27:03.087Z,5.06
2018-01-01T21:29:31.025Z,4.97
2018-01-01T21:31:58.801Z,4.95
2018-01-01T21:34:26.628Z,4.95
2018-01-01T21:36:54.408Z,4.92
2018-01-01T21:39:22.232Z,5.01
2018-01-01T21:41:49.996Z,4.99
2018-01-01T21:44:17.696Z,4.91
2018-01-01T21:46:45.425Z,4.79
2018-01-01T21:49:13.262Z,4.68
2018-01-01T21:51:40.940Z,4.61
2018-01-01T21:54:08.583Z,4.56
2018-01-01T21:56:36.345Z,4.49
2018-01-01T21:59:03.938Z,4.50
2018-01-01T22:01:31.458Z,4.47
2018-01-01T22:03:59.098Z,4.46
2018-01-01T22:06:27.331Z,4.47
2018-01-01T22:08:54.866Z,4.46
2018-01-01T22:11:22.386Z,4.43
2018-01-01T22:13:49.850Z,4.40
2018-01-01T22:16:17.570Z,4.34
2018-01-01T22:18:45.266Z,4.31
2018-01-01T22:21:12.776Z,4.34
2018-01-01T22:23:40.234Z,4.45
2018-01-01T22:26:07.814Z,4.53
2018-01-01T22:28:36.353Z,4.53
2018-01-01T22:31:03.819Z,4.47
2018-01-01T22:33:31.330Z,4.43
2018-01-01T22:35:58.909Z,4.39
2018-01-01T22:38:26.384Z,4.41
2018-01-01T22:40:53.911Z,4.40
2018-01-01T22:43:21.443Z,4.45
2018-01-01T22:45:48.928Z,4.47
2018-01-01T22:48:16.446Z,4.41
2018-01-01T22:50:43.963Z,4.33
2018-01-01T22:53:11.460Z,4.29
2018-01-01T22:55:38.932Z,4.23
2018-01-01T22:58:06.414Z,4.17
2018-01-01T23:00:33.935Z,4.12
2018-01-01T23:03:01.400Z,4.20
2018-01-01T23:05:28.873Z,4.21
2018-01-01T23:07:56.373Z,4.17
2018-01-01T23:10:23.851Z,4.16
2018-01-01T23:12:51.364Z,4.06
2018-01-01T23:15:18.895Z,4.05
2018-01-01T23:17:46.375Z,4.07
2018-01-01T23:20:13.880Z,4.12
2018-01-01T23:22:41.379Z,4.18
2018-01-01T23:25:08.865Z,4.40
2018-01-01T23:27:36.353Z,4.45
2018-01-01T23:30:03.824Z,4.34
2018-01-01T23:32:31.402Z,4.31
2018-01-01T23:34:58.954Z,4.23
2018-01-01T23:37:26.425Z,4.22
2018-01-01T23:39:53.892Z,4.20
2018-01-01T23:42:21.456Z,4.29
2018-01-01T23:44:48.924Z,4.46
2018-01-01T23:47:16.375Z,4.44
2018-01-01T23:49:43.856Z,4.40
2018-01-01T23:52:11.306Z,4.29
2018-01-01T23:54:38.775Z,4.40
2018-01-01T23:57:06.244Z,4.34
2018-01-01T23:59:33.717Z,4.36
